sensor_id;sensor_type;location;lat;lon;timestamp;pressure;altitude;pressure_sealevel;temperature;humidity
25156;BME280;21913;52.456;13.634;2023-02-10T00:04:31;102144.16;;;10.27;57.36
25156;BME280;21913;52.456;13.634;2023-02-10T00:09:33;102147.66;;;10.27;57.35
25156;BME280;21913;52.456;13.634;2023-02-10T00:14:34;102144.22;;;10.29;57.39
25156;BME280;21913;52.456;13.634;2023-02-10T00:19:36;102138.09;;;10.26;57.41
25156;BME280;21913;52.456;13.634;2023-02-10T00:24:38;102138.97;;;10.27;57.45
25156;BME280;21913;52.456;13.634;2023-02-10T00:29:39;102139.91;;;10.27;57.56
25156;BME280;21913;52.456;13.634;2023-02-10T00:34:41;102137.31;;;10.27;57.50
25156;BME280;21913;52.456;13.634;2023-02-10T00:39:43;102135.59;;;10.28;57.48
25156;BME280;21913;52.456;13.634;2023-02-10T00:44:44;102133.81;;;10.27;57.45
25156;BME280;21913;52.456;13.634;2023-02-10T00:49:46;102148.53;;;10.28;57.74
25156;BME280;21913;52.456;13.634;2023-02-10T00:54:47;102147.66;;;10.27;57.56
25156;BME280;21913;52.456;13.634;2023-02-10T00:59:49;102152.84;;;10.27;57.68
25156;BME280;21913;52.456;13.634;2023-02-10T01:04:50;102159.69;;;10.27;57.76
25156;BME280;21913;52.456;13.634;2023-02-10T01:09:52;102164.06;;;10.28;57.72
25156;BME280;21913;52.456;13.634;2023-02-10T01:14:54;102171.00;;;10.29;57.82
25156;BME280;21913;52.456;13.634;2023-02-10T01:19:55;102164.06;;;10.28;57.94
25156;BME280;21913;52.456;13.634;2023-02-10T01:24:57;102175.28;;;10.29;57.86
25156;BME280;21913;52.456;13.634;2023-02-10T01:29:59;102177.00;;;10.28;57.85
25156;BME280;21913;52.456;13.634;2023-02-10T01:35:00;102183.91;;;10.29;57.92
25156;BME280;21913;52.456;13.634;2023-02-10T01:40:02;102183.03;;;10.29;57.90
25156;BME280;21913;52.456;13.634;2023-02-10T01:45:19;102178.69;;;10.27;57.95
25156;BME280;21913;52.456;13.634;2023-02-10T01:50:23;102178.69;;;10.27;57.85
25156;BME280;21913;52.456;13.634;2023-02-10T01:55:30;102179.59;;;10.28;58.01
25156;BME280;21913;52.456;13.634;2023-02-10T02:00:32;102189.06;;;10.27;58.08
25156;BME280;21913;52.456;13.634;2023-02-10T02:05:36;102178.69;;;10.27;58.15
25156;BME280;21913;52.456;13.634;2023-02-10T02:26:40;102186.50;;;10.29;58.24
25156;BME280;21913;52.456;13.634;2023-02-10T02:37:03;102200.28;;;10.28;58.15
25156;BME280;21913;52.456;13.634;2023-02-10T02:42:17;102203.75;;;10.29;58.18
25156;BME280;21913;52.456;13.634;2023-02-10T02:57:54;102202.00;;;10.27;58.27
25156;BME280;21913;52.456;13.634;2023-02-10T03:02:59;102193.31;;;10.27;58.61
25156;BME280;21913;52.456;13.634;2023-02-10T03:08:01;102194.22;;;10.27;58.33
25156;BME280;21913;52.456;13.634;2023-02-10T03:13:02;102186.47;;;10.27;58.40
25156;BME280;21913;52.456;13.634;2023-02-10T03:18:04;102188.13;;;10.27;58.41
25156;BME280;21913;52.456;13.634;2023-02-10T03:23:06;102176.91;;;10.26;58.38
25156;BME280;21913;52.456;13.634;2023-02-10T03:28:07;102170.03;;;10.27;58.41
25156;BME280;21913;52.456;13.634;2023-02-10T03:33:09;102173.53;;;10.27;58.50
25156;BME280;21913;52.456;13.634;2023-02-10T03:38:11;102164.06;;;10.28;58.61
25156;BME280;21913;52.456;13.634;2023-02-10T03:43:13;102175.28;;;10.29;58.38
25156;BME280;21913;52.456;13.634;2023-02-10T03:48:15;102170.94;;;10.27;58.58
25156;BME280;21913;52.456;13.634;2023-02-10T03:53:16;102175.28;;;10.29;58.48
25156;BME280;21913;52.456;13.634;2023-02-10T03:58:18;102177.00;;;10.28;58.61
25156;BME280;21913;52.456;13.634;2023-02-10T04:03:19;102174.41;;;10.28;58.52
25156;BME280;21913;52.456;13.634;2023-02-10T04:08:21;102186.50;;;10.29;58.58
25156;BME280;21913;52.456;13.634;2023-02-10T04:13:23;102187.34;;;10.28;58.63
25156;BME280;21913;52.456;13.634;2023-02-10T04:18:24;102185.56;;;10.27;58.67
25156;BME280;21913;52.456;13.634;2023-02-10T04:23:26;102186.50;;;10.29;58.50
25156;BME280;21913;52.456;13.634;2023-02-10T04:28:28;102190.81;;;10.29;58.60
25156;BME280;21913;52.456;13.634;2023-02-10T04:33:29;102190.81;;;10.29;58.68
25156;BME280;21913;52.456;13.634;2023-02-10T04:38:31;102195.97;;;10.29;58.75
25156;BME280;21913;52.456;13.634;2023-02-10T04:43:33;102189.06;;;10.27;58.77
25156;BME280;21913;52.456;13.634;2023-02-10T04:48:35;102186.47;;;10.27;58.74
25156;BME280;21913;52.456;13.634;2023-02-10T04:53:37;102185.63;;;10.29;58.82
25156;BME280;21913;52.456;13.634;2023-02-10T04:58:39;102182.16;;;10.28;58.87
25156;BME280;21913;52.456;13.634;2023-02-10T05:03:41;102182.16;;;10.28;58.85
25156;BME280;21913;52.456;13.634;2023-02-10T05:08:43;102183.03;;;10.29;58.83
25156;BME280;21913;52.456;13.634;2023-02-10T05:13:44;102186.47;;;10.27;58.85
25156;BME280;21913;52.456;13.634;2023-02-10T05:18:46;102189.94;;;10.28;58.84
25156;BME280;21913;52.456;13.634;2023-02-10T05:23:48;102189.06;;;10.27;58.98
25156;BME280;21913;52.456;13.634;2023-02-10T05:28:49;102208.03;;;10.28;58.87
25156;BME280;21913;52.456;13.634;2023-02-10T05:33:51;102212.34;;;10.27;58.92
25156;BME280;21913;52.456;13.634;2023-02-10T05:38:53;102214.00;;;10.27;58.89
25156;BME280;21913;52.456;13.634;2023-02-10T05:43:54;102222.69;;;10.27;58.93
25156;BME280;21913;52.456;13.634;2023-02-10T05:48:56;102223.56;;;10.28;58.96
25156;BME280;21913;52.456;13.634;2023-02-10T05:53:57;102238.25;;;10.29;59.03
25156;BME280;21913;52.456;13.634;2023-02-10T05:58:59;102246.84;;;10.28;58.97
25156;BME280;21913;52.456;13.634;2023-02-10T06:04:01;102246.84;;;10.28;59.00
25156;BME280;21913;52.456;13.634;2023-02-10T06:09:03;102249.44;;;10.28;59.02
25156;BME280;21913;52.456;13.634;2023-02-10T06:14:05;102248.59;;;10.29;58.87
25156;BME280;21913;52.456;13.634;2023-02-10T06:19:06;102255.50;;;10.29;59.01
25156;BME280;21913;52.456;13.634;2023-02-10T06:24:08;102264.97;;;10.28;58.97
25156;BME280;21913;52.456;13.634;2023-02-10T06:29:10;102267.56;;;10.28;59.08
25156;BME280;21913;52.456;13.634;2023-02-10T06:34:11;102275.31;;;10.28;58.88
25156;BME280;21913;52.456;13.634;2023-02-10T06:39:13;102275.31;;;10.28;59.13
25156;BME280;21913;52.456;13.634;2023-02-10T06:44:14;102283.94;;;10.29;59.13
25156;BME280;21913;52.456;13.634;2023-02-10T06:49:16;102283.94;;;10.29;59.20
25156;BME280;21913;52.456;13.634;2023-02-10T06:54:18;102295.19;;;10.29;59.16
25156;BME280;21913;52.456;13.634;2023-02-10T06:59:20;102296.88;;;10.29;59.10
25156;BME280;21913;52.456;13.634;2023-02-10T07:04:21;102301.22;;;10.30;59.25
25156;BME280;21913;52.456;13.634;2023-02-10T07:09:24;102296.06;;;10.30;59.16
25156;BME280;21913;52.456;13.634;2023-02-10T07:14:25;102290.00;;;10.29;59.30
25156;BME280;21913;52.456;13.634;2023-02-10T07:19:27;102294.31;;;10.29;59.22
25156;BME280;21913;52.456;13.634;2023-02-10T07:24:28;102292.53;;;10.27;59.31
25156;BME280;21913;52.456;13.634;2023-02-10T07:29:30;102295.19;;;10.29;59.20
25156;BME280;21913;52.456;13.634;2023-02-10T07:34:32;102284.84;;;10.29;59.37
25156;BME280;21913;52.456;13.634;2023-02-10T07:39:34;102284.84;;;10.29;59.45
25156;BME280;21913;52.456;13.634;2023-02-10T07:44:35;102289.13;;;10.29;59.39
25156;BME280;21913;52.456;13.634;2023-02-10T07:49:37;102290.88;;;10.30;59.38
25156;BME280;21913;52.456;13.634;2023-02-10T07:54:39;102300.34;;;10.29;59.49
25156;BME280;21913;52.456;13.634;2023-02-10T07:59:40;102295.19;;;10.29;59.34
25156;BME280;21913;52.456;13.634;2023-02-10T08:04:42;102305.53;;;10.29;59.41
25156;BME280;21913;52.456;13.634;2023-02-10T08:09:43;102303.81;;;10.30;59.46
25156;BME280;21913;52.456;13.634;2023-02-10T08:14:45;102314.16;;;10.30;59.52
25156;BME280;21913;52.456;13.634;2023-02-10T08:19:47;102321.94;;;10.30;59.53
25156;BME280;21913;52.456;13.634;2023-02-10T08:24:49;102320.22;;;10.30;59.65
25156;BME280;21913;52.456;13.634;2023-02-10T08:29:50;102316.75;;;10.30;59.52
25156;BME280;21913;52.456;13.634;2023-02-10T08:34:52;102330.56;;;10.30;59.50
25156;BME280;21913;52.456;13.634;2023-02-10T08:39:54;102338.34;;;10.30;59.49
25156;BME280;21913;52.456;13.634;2023-02-10T08:44:55;102342.25;;;10.20;59.07
25156;BME280;21913;52.456;13.634;2023-02-10T08:49:57;102338.31;;;10.08;58.02
25156;BME280;21913;52.456;13.634;2023-02-10T08:54:59;102340.13;;;10.10;57.99
25156;BME280;21913;52.456;13.634;2023-02-10T09:00:00;102342.88;;;10.15;58.05
25156;BME280;21913;52.456;13.634;2023-02-10T09:05:03;102332.69;;;10.18;57.96
25156;BME280;21913;52.456;13.634;2023-02-10T09:10:11;102342.28;;;10.22;58.07
25156;BME280;21913;52.456;13.634;2023-02-10T09:15:13;102343.19;;;10.22;58.16
25156;BME280;21913;52.456;13.634;2023-02-10T09:20:15;102351.94;;;10.24;58.29
25156;BME280;21913;52.456;13.634;2023-02-10T09:25:16;102347.63;;;10.25;58.27
25156;BME280;21913;52.456;13.634;2023-02-10T09:30:18;102361.44;;;10.25;58.47
25156;BME280;21913;52.456;13.634;2023-02-10T09:35:20;102362.31;;;10.26;58.53
25156;BME280;21913;52.456;13.634;2023-02-10T09:40:32;102364.09;;;10.27;58.62
25156;BME280;21913;52.456;13.634;2023-02-10T09:45:37;102361.50;;;10.27;58.76
25156;BME280;21913;52.456;13.634;2023-02-10T09:55:54;102373.69;;;10.30;58.77
25156;BME280;21913;52.456;13.634;2023-02-10T10:01:03;102368.47;;;10.28;58.80
25156;BME280;21913;52.456;13.634;2023-02-10T10:11:31;102374.56;;;10.30;58.77
25156;BME280;21913;52.456;13.634;2023-02-10T10:32:38;102365.09;;;10.31;59.07
25156;BME280;21913;52.456;13.634;2023-02-10T10:37:43;102365.03;;;10.29;59.08
25156;BME280;21913;52.456;13.634;2023-02-10T10:42:47;102359.91;;;10.31;58.90
25156;BME280;21913;52.456;13.634;2023-02-10T10:48:05;102365.09;;;10.31;59.11
25156;BME280;21913;52.456;13.634;2023-02-10T10:53:15;102365.09;;;10.31;59.40
25156;BME280;21913;52.456;13.634;2023-02-10T10:58:28;102365.09;;;10.31;59.21
25156;BME280;21913;52.456;13.634;2023-02-10T11:03:32;102364.91;;;10.26;59.00
25156;BME280;21913;52.456;13.634;2023-02-10T11:08:45;102351.97;;;10.26;58.62
25156;BME280;21913;52.456;13.634;2023-02-10T11:13:54;102338.22;;;10.27;58.66
25156;BME280;21913;52.456;13.634;2023-02-10T11:19:00;102334.75;;;10.26;58.63
25156;BME280;21913;52.456;13.634;2023-02-10T11:24:03;102327.06;;;10.28;58.88
25156;BME280;21913;52.456;13.634;2023-02-10T11:29:09;102326.22;;;10.29;58.81
25156;BME280;21913;52.456;13.634;2023-02-10T11:34:28;102315.06;;;10.30;58.94
25156;BME280;21913;52.456;13.634;2023-02-10T11:39:33;102311.59;;;10.30;58.96
25156;BME280;21913;52.456;13.634;2023-02-10T11:44:36;102312.47;;;10.30;59.12
25156;BME280;21913;52.456;13.634;2023-02-10T11:49:45;102309.91;;;10.32;59.21
25156;BME280;21913;52.456;13.634;2023-02-10T11:54:48;102307.28;;;10.30;59.18
25156;BME280;21913;52.456;13.634;2023-02-10T12:11:26;102306.47;;;10.31;59.40
25156;BME280;21913;52.456;13.634;2023-02-10T12:27:21;102283.16;;;10.31;59.33
25156;BME280;21913;52.456;13.634;2023-02-10T12:32:34;102273.69;;;10.32;59.44
25156;BME280;21913;52.456;13.634;2023-02-10T12:43:33;102255.66;;;10.33;59.59
25156;BME280;21913;52.456;13.634;2023-02-10T12:54:36;102246.19;;;10.34;59.64
25156;BME280;21913;52.456;13.634;2023-02-10T12:59:15;102253.88;;;10.32;59.69
25156;BME280;21913;52.456;13.634;2023-02-10T13:04:27;102252.16;;;10.33;59.69
25156;BME280;21913;52.456;13.634;2023-02-10T13:09:39;102239.31;;;10.34;59.81
25156;BME280;21913;52.456;13.634;2023-02-10T13:14:45;102228.06;;;10.34;59.72
25156;BME280;21913;52.456;13.634;2023-02-10T13:19:53;102214.25;;;10.33;59.66
25156;BME280;21913;52.456;13.634;2023-02-10T13:25:06;102231.53;;;10.34;59.82
25156;BME280;21913;52.456;13.634;2023-02-10T13:35:23;102230.66;;;10.34;59.67
25156;BME280;21913;52.456;13.634;2023-02-10T13:40:28;102220.31;;;10.34;59.80
25156;BME280;21913;52.456;13.634;2023-02-10T13:45:36;102214.25;;;10.33;59.89
25156;BME280;21913;52.456;13.634;2023-02-10T13:50:57;102202.25;;;10.35;59.80
25156;BME280;21913;52.456;13.634;2023-02-10T14:01:47;102194.44;;;10.34;59.79
25156;BME280;21913;52.456;13.634;2023-02-10T14:06:51;102190.91;;;10.32;59.92
25156;BME280;21913;52.456;13.634;2023-02-10T14:11:53;102196.03;;;10.30;58.89
25156;BME280;21913;52.456;13.634;2023-02-10T14:22:23;102208.09;;;10.30;57.90
25156;BME280;21913;52.456;13.634;2023-02-10T14:27:27;102206.34;;;10.29;58.21
25156;BME280;21913;52.456;13.634;2023-02-10T14:32:30;102192.59;;;10.31;58.34
25156;BME280;21913;52.456;13.634;2023-02-10T14:37:32;102190.03;;;10.31;58.56
25156;BME280;21913;52.456;13.634;2023-02-10T14:42:34;102189.19;;;10.32;58.66
25156;BME280;21913;52.456;13.634;2023-02-10T14:47:37;102171.06;;;10.32;58.80
25156;BME280;21913;52.456;13.634;2023-02-10T14:52:47;102172.88;;;10.33;58.84
25156;BME280;21913;52.456;13.634;2023-02-10T14:57:51;102156.44;;;10.33;58.88
25156;BME280;21913;52.456;13.634;2023-02-10T15:02:58;102165.09;;;10.33;59.05
25156;BME280;21913;52.456;13.634;2023-02-10T15:08:01;102163.38;;;10.34;59.14
25156;BME280;21913;52.456;13.634;2023-02-10T15:13:06;102159.09;;;10.34;59.11
25156;BME280;21913;52.456;13.634;2023-02-10T15:18:31;102166.03;;;10.35;59.32
25156;BME280;21913;52.456;13.634;2023-02-10T15:23:33;102153.91;;;10.34;59.21
25156;BME280;21913;52.456;13.634;2023-02-10T15:28:35;102157.38;;;10.35;59.34
25156;BME280;21913;52.456;13.634;2023-02-10T15:33:39;102149.63;;;10.35;59.36
25156;BME280;21913;52.456;13.634;2023-02-10T15:43:59;102153.91;;;10.34;59.54
25156;BME280;21913;52.456;13.634;2023-02-10T15:49:09;102155.66;;;10.35;59.41
25156;BME280;21913;52.456;13.634;2023-02-10T15:54:13;102139.28;;;10.35;59.38
25156;BME280;21913;52.456;13.634;2023-02-10T15:59:16;102147.03;;;10.35;59.48
25156;BME280;21913;52.456;13.634;2023-02-10T16:04:18;102136.69;;;10.35;59.50
25156;BME280;21913;52.456;13.634;2023-02-10T16:09:19;102126.34;;;10.35;59.47
25156;BME280;21913;52.456;13.634;2023-02-10T16:14:21;102127.22;;;10.35;59.71
25156;BME280;21913;52.456;13.634;2023-02-10T16:19:25;102117.69;;;10.34;59.64
25156;BME280;21913;52.456;13.634;2023-02-10T16:24:28;102124.63;;;10.35;59.63
25156;BME280;21913;52.456;13.634;2023-02-10T16:29:30;102119.44;;;10.35;59.66
25156;BME280;21913;52.456;13.634;2023-02-10T16:34:32;102120.31;;;10.36;59.68
25156;BME280;21913;52.456;13.634;2023-02-10T16:39:33;102120.31;;;10.36;59.79
25156;BME280;21913;52.456;13.634;2023-02-10T16:44:35;102118.59;;;10.36;59.76
25156;BME280;21913;52.456;13.634;2023-02-10T16:49:37;102125.50;;;10.36;59.82
25156;BME280;21913;52.456;13.634;2023-02-10T16:54:38;102117.72;;;10.36;59.80
25156;BME280;21913;52.456;13.634;2023-02-10T16:59:40;102124.63;;;10.35;59.92
25156;BME280;21913;52.456;13.634;2023-02-10T17:04:42;102123.78;;;10.36;59.90
25156;BME280;21913;52.456;13.634;2023-02-10T17:09:44;102121.19;;;10.36;59.73
25156;BME280;21913;52.456;13.634;2023-02-10T17:14:46;102118.59;;;10.36;59.81
25156;BME280;21913;52.456;13.634;2023-02-10T17:19:47;102108.25;;;10.36;59.85
25156;BME280;21913;52.456;13.634;2023-02-10T17:24:49;102103.91;;;10.35;59.88
25156;BME280;21913;52.456;13.634;2023-02-10T17:29:50;102091.81;;;10.34;59.96
25156;BME280;21913;52.456;13.634;2023-02-10T17:34:52;102074.56;;;10.35;59.62
25156;BME280;21913;52.456;13.634;2023-02-10T17:39:54;102076.28;;;10.34;59.37
25156;BME280;21913;52.456;13.634;2023-02-10T17:44:55;102077.16;;;10.35;59.40
25156;BME280;21913;52.456;13.634;2023-02-10T17:49:57;102065.06;;;10.34;59.38
25156;BME280;21913;52.456;13.634;2023-02-10T17:54:58;102065.09;;;10.35;59.56
25156;BME280;21913;52.456;13.634;2023-02-10T18:00:05;102067.69;;;10.35;59.66
25156;BME280;21913;52.456;13.634;2023-02-10T18:05:12;102078.03;;;10.35;59.58
25156;BME280;21913;52.456;13.634;2023-02-10T18:10:14;102081.50;;;10.36;59.61
25156;BME280;21913;52.456;13.634;2023-02-10T18:15:16;102080.63;;;10.35;59.63
25156;BME280;21913;52.456;13.634;2023-02-10T18:20:18;102090.16;;;10.36;59.54
25156;BME280;21913;52.456;13.634;2023-02-10T18:25:20;102105.66;;;10.36;59.73
25156;BME280;21913;52.456;13.634;2023-02-10T18:30:21;102095.31;;;10.36;59.65
25156;BME280;21913;52.456;13.634;2023-02-10T18:35:23;102095.31;;;10.36;59.69
25156;BME280;21913;52.456;13.634;2023-02-10T18:40:25;102079.78;;;10.36;59.82
25156;BME280;21913;52.456;13.634;2023-02-10T18:45:26;102074.63;;;10.36;59.89
25156;BME280;21913;52.456;13.634;2023-02-10T18:50:28;102058.22;;;10.36;59.72
25156;BME280;21913;52.456;13.634;2023-02-10T18:55:30;102058.22;;;10.36;59.90
25156;BME280;21913;52.456;13.634;2023-02-10T19:00:31;102066.84;;;10.36;59.72
25156;BME280;21913;52.456;13.634;2023-02-10T19:05:33;102058.25;;;10.37;59.86
25156;BME280;21913;52.456;13.634;2023-02-10T19:10:35;102065.16;;;10.37;59.99
25156;BME280;21913;52.456;13.634;2023-02-10T19:15:37;102058.25;;;10.37;59.89
25156;BME280;21913;52.456;13.634;2023-02-10T19:20:50;102072.03;;;10.36;59.89
25156;BME280;21913;52.456;13.634;2023-02-10T19:25:52;102072.91;;;10.37;59.99
25156;BME280;21913;52.456;13.634;2023-02-10T19:31:02;102091.91;;;10.37;59.95
25156;BME280;21913;52.456;13.634;2023-02-10T19:36:08;102103.09;;;10.36;59.95
25156;BME280;21913;52.456;13.634;2023-02-10T19:41:14;102098.78;;;10.37;59.94
25156;BME280;21913;52.456;13.634;2023-02-10T19:46:17;102110.00;;;10.37;59.88
25156;BME280;21913;52.456;13.634;2023-02-10T19:51:20;102129.00;;;10.38;60.22
25156;BME280;21913;52.456;13.634;2023-02-10T19:56:22;102120.38;;;10.37;60.01
25156;BME280;21913;52.456;13.634;2023-02-10T20:01:24;102106.56;;;10.37;60.12
25156;BME280;21913;52.456;13.634;2023-02-10T20:06:28;102103.09;;;10.36;60.12
25156;BME280;21913;52.456;13.634;2023-02-10T20:11:30;102111.72;;;10.37;60.12
25156;BME280;21913;52.456;13.634;2023-02-10T20:16:31;102114.31;;;10.37;60.10
25156;BME280;21913;52.456;13.634;2023-02-10T20:21:33;102116.91;;;10.37;60.10
25156;BME280;21913;52.456;13.634;2023-02-10T20:26:35;102091.03;;;10.37;60.08
25156;BME280;21913;52.456;13.634;2023-02-10T20:31:38;102086.72;;;10.37;60.15
25156;BME280;21913;52.456;13.634;2023-02-10T20:36:40;102078.97;;;10.37;60.06
25156;BME280;21913;52.456;13.634;2023-02-10T20:41:41;102077.25;;;10.38;60.20
25156;BME280;21913;52.456;13.634;2023-02-10T20:46:43;102073.78;;;10.37;60.33
25156;BME280;21913;52.456;13.634;2023-02-10T20:51:44;102050.50;;;10.37;60.32
25156;BME280;21913;52.456;13.634;2023-02-10T20:56:46;102044.44;;;10.37;60.23
25156;BME280;21913;52.456;13.634;2023-02-10T21:01:47;102046.19;;;10.38;60.28
25156;BME280;21913;52.456;13.634;2023-02-10T21:06:49;102049.63;;;10.37;60.30
25156;BME280;21913;52.456;13.634;2023-02-10T21:11:51;102055.66;;;10.37;60.29
25156;BME280;21913;52.456;13.634;2023-02-10T21:16:53;102063.44;;;10.37;60.28
25156;BME280;21913;52.456;13.634;2023-02-10T21:21:55;102053.09;;;10.37;60.22
25156;BME280;21913;52.456;13.634;2023-02-10T21:26:56;102053.09;;;10.37;60.29
25156;BME280;21913;52.456;13.634;2023-02-10T21:31:58;102079.03;;;10.39;60.37
25156;BME280;21913;52.456;13.634;2023-02-10T21:36:59;102088.47;;;10.38;60.37
25156;BME280;21913;52.456;13.634;2023-02-10T21:42:01;102070.38;;;10.38;60.34
25156;BME280;21913;52.456;13.634;2023-02-10T21:47:05;102068.69;;;10.39;60.35
25156;BME280;21913;52.456;13.634;2023-02-10T21:52:08;102064.38;;;10.39;60.41
25156;BME280;21913;52.456;13.634;2023-02-10T21:57:12;102052.25;;;10.38;60.47
25156;BME280;21913;52.456;13.634;2023-02-10T22:02:14;102042.81;;;10.39;60.58
25156;BME280;21913;52.456;13.634;2023-02-10T22:07:16;102054.03;;;10.39;60.46
25156;BME280;21913;52.456;13.634;2023-02-10T22:12:17;102044.47;;;10.38;60.61
25156;BME280;21913;52.456;13.634;2023-02-10T22:17:19;102055.66;;;10.37;60.49
25156;BME280;21913;52.456;13.634;2023-02-10T22:22:20;102047.06;;;10.38;60.46
25156;BME280;21913;52.456;13.634;2023-02-10T22:27:22;102060.00;;;10.38;60.44
25156;BME280;21913;52.456;13.634;2023-02-10T22:32:24;102047.06;;;10.38;60.47
25156;BME280;21913;52.456;13.634;2023-02-10T22:37:25;102059.22;;;10.39;60.53
25156;BME280;21913;52.456;13.634;2023-02-10T22:42:27;102053.91;;;10.36;60.55
25156;BME280;21913;52.456;13.634;2023-02-10T22:47:28;102060.84;;;10.37;60.61
25156;BME280;21913;52.456;13.634;2023-02-10T22:52:30;102053.16;;;10.39;60.43
25156;BME280;21913;52.456;13.634;2023-02-10T22:57:35;102055.75;;;10.39;60.52
25156;BME280;21913;52.456;13.634;2023-02-10T23:02:37;102049.66;;;10.38;60.48
25156;BME280;21913;52.456;13.634;2023-02-10T23:07:38;102052.31;;;10.40;60.53
25156;BME280;21913;52.456;13.634;2023-02-10T23:12:40;102039.31;;;10.38;60.61
25156;BME280;21913;52.456;13.634;2023-02-10T23:17:42;102039.31;;;10.38;60.55
25156;BME280;21913;52.456;13.634;2023-02-10T23:22:43;102043.69;;;10.39;60.61
25156;BME280;21913;52.456;13.634;2023-02-10T23:27:48;102035.91;;;10.39;60.71
25156;BME280;21913;52.456;13.634;2023-02-10T23:32:50;102025.56;;;10.39;60.80
25156;BME280;21913;52.456;13.634;2023-02-10T23:37:51;102012.63;;;10.39;60.69
25156;BME280;21913;52.456;13.634;2023-02-10T23:42:53;102010.03;;;10.39;60.61
25156;BME280;21913;52.456;13.634;2023-02-10T23:47:55;102004.03;;;10.40;60.79
25156;BME280;21913;52.456;13.634;2023-02-10T23:52:56;101986.75;;;10.39;60.77
25156;BME280;21913;52.456;13.634;2023-02-10T23:57:58;101980.75;;;10.40;60.70
